sensor_id;sensor_type;location;lat;lon;timestamp;pressure;altitude;pressure_sealevel;temperature
65569;BMP180;52211;50.154;8.682;2023-02-22T00:02:02;100032.00;;;12.90
65569;BMP180;52211;50.154;8.682;2023-02-22T00:04:50;100025.00;;;12.90
65569;BMP180;52211;50.154;8.682;2023-02-22T00:07:18;100023.00;;;12.90
65569;BMP180;52211;50.154;8.682;2023-02-22T00:09:55;100029.00;;;12.80
65569;BMP180;52211;50.154;8.682;2023-02-22T00:12:22;100021.00;;;12.80
65569;BMP180;52211;50.154;8.682;2023-02-22T00:14:52;100017.00;;;12.80
65569;BMP180;52211;50.154;8.682;2023-02-22T00:17:19;100012.00;;;12.80
65569;BMP180;52211;50.154;8.682;2023-02-22T00:19:48;100010.00;;;12.70
65569;BMP180;52211;50.154;8.682;2023-02-22T00:22:18;99998.00;;;12.70
65569;BMP180;52211;50.154;8.682;2023-02-22T00:24:45;100001.00;;;12.60
65569;BMP180;52211;50.154;8.682;2023-02-22T00:27:14;100001.00;;;12.60
65569;BMP180;52211;50.154;8.682;2023-02-22T00:29:47;100003.00;;;12.50
65569;BMP180;52211;50.154;8.682;2023-02-22T00:32:16;100016.00;;;12.50
65569;BMP180;52211;50.154;8.682;2023-02-22T00:34:45;100005.00;;;12.50
65569;BMP180;52211;50.154;8.682;2023-02-22T00:37:13;100004.00;;;12.50
65569;BMP180;52211;50.154;8.682;2023-02-22T00:39:40;100010.00;;;12.40
65569;BMP180;52211;50.154;8.682;2023-02-22T00:42:07;100007.00;;;12.40
65569;BMP180;52211;50.154;8.682;2023-02-22T00:44:35;100012.00;;;12.40
65569;BMP180;52211;50.154;8.682;2023-02-22T00:47:06;100015.00;;;12.30
65569;BMP180;52211;50.154;8.682;2023-02-22T00:49:39;100009.00;;;12.30
65569;BMP180;52211;50.154;8.682;2023-02-22T00:52:08;99996.00;;;12.20
65569;BMP180;52211;50.154;8.682;2023-02-22T00:54:35;99997.00;;;12.20
65569;BMP180;52211;50.154;8.682;2023-02-22T00:57:05;99996.00;;;12.10
65569;BMP180;52211;50.154;8.682;2023-02-22T00:59:35;99991.00;;;12.10
65569;BMP180;52211;50.154;8.682;2023-02-22T01:02:04;99992.00;;;12.10
65569;BMP180;52211;50.154;8.682;2023-02-22T01:04:36;99990.00;;;12.10
65569;BMP180;52211;50.154;8.682;2023-02-22T01:07:11;99986.00;;;12.10
65569;BMP180;52211;50.154;8.682;2023-02-22T01:09:40;99989.00;;;12.10
65569;BMP180;52211;50.154;8.682;2023-02-22T01:12:07;99983.00;;;12.10
65569;BMP180;52211;50.154;8.682;2023-02-22T01:14:36;99986.00;;;12.00
65569;BMP180;52211;50.154;8.682;2023-02-22T01:17:05;99978.00;;;12.00
65569;BMP180;52211;50.154;8.682;2023-02-22T01:19:33;99978.00;;;12.00
65569;BMP180;52211;50.154;8.682;2023-02-22T01:21:59;99972.00;;;12.00
65569;BMP180;52211;50.154;8.682;2023-02-22T01:24:31;99971.00;;;12.00
65569;BMP180;52211;50.154;8.682;2023-02-22T01:26:58;99972.00;;;11.90
65569;BMP180;52211;50.154;8.682;2023-02-22T01:29:25;99968.00;;;11.90
65569;BMP180;52211;50.154;8.682;2023-02-22T01:31:54;99965.00;;;11.90
65569;BMP180;52211;50.154;8.682;2023-02-22T01:34:23;99965.00;;;11.90
65569;BMP180;52211;50.154;8.682;2023-02-22T01:36:53;99970.00;;;11.90
65569;BMP180;52211;50.154;8.682;2023-02-22T01:39:20;99968.00;;;11.90
65569;BMP180;52211;50.154;8.682;2023-02-22T01:41:47;99959.00;;;11.90
65569;BMP180;52211;50.154;8.682;2023-02-22T01:46:56;99966.00;;;11.80
65569;BMP180;52211;50.154;8.682;2023-02-22T01:49:42;99959.00;;;11.80
65569;BMP180;52211;50.154;8.682;2023-02-22T01:52:19;99956.00;;;11.70
65569;BMP180;52211;50.154;8.682;2023-02-22T01:54:57;99954.00;;;11.70
65569;BMP180;52211;50.154;8.682;2023-02-22T01:57:32;99955.00;;;11.70
65569;BMP180;52211;50.154;8.682;2023-02-22T02:00:10;99949.00;;;11.60
65569;BMP180;52211;50.154;8.682;2023-02-22T02:02:51;99939.00;;;11.60
65569;BMP180;52211;50.154;8.682;2023-02-22T02:05:21;99937.00;;;11.60
65569;BMP180;52211;50.154;8.682;2023-02-22T02:07:51;99935.00;;;11.60
65569;BMP180;52211;50.154;8.682;2023-02-22T02:10:20;99934.00;;;11.50
65569;BMP180;52211;50.154;8.682;2023-02-22T02:12:52;99937.00;;;11.50
65569;BMP180;52211;50.154;8.682;2023-02-22T02:15:32;99936.00;;;11.50
65569;BMP180;52211;50.154;8.682;2023-02-22T02:18:09;99935.00;;;11.50
65569;BMP180;52211;50.154;8.682;2023-02-22T02:21:12;99931.00;;;11.50
65569;BMP180;52211;50.154;8.682;2023-02-22T02:27:15;99922.00;;;11.40
65569;BMP180;52211;50.154;8.682;2023-02-22T02:30:22;99924.00;;;11.40
65569;BMP180;52211;50.154;8.682;2023-02-22T02:33:22;99921.00;;;11.40
65569;BMP180;52211;50.154;8.682;2023-02-22T02:36:29;99924.00;;;11.40
65569;BMP180;52211;50.154;8.682;2023-02-22T02:39:16;99916.00;;;11.40
65569;BMP180;52211;50.154;8.682;2023-02-22T02:41:53;99905.00;;;11.30
65569;BMP180;52211;50.154;8.682;2023-02-22T02:44:40;99910.00;;;11.30
65569;BMP180;52211;50.154;8.682;2023-02-22T02:47:19;99909.00;;;11.30
65569;BMP180;52211;50.154;8.682;2023-02-22T02:50:32;99913.00;;;11.30
65569;BMP180;52211;50.154;8.682;2023-02-22T02:53:08;99912.00;;;11.30
65569;BMP180;52211;50.154;8.682;2023-02-22T02:55:36;99911.00;;;11.30
65569;BMP180;52211;50.154;8.682;2023-02-22T02:58:10;99906.00;;;11.30
65569;BMP180;52211;50.154;8.682;2023-02-22T03:00:44;99902.00;;;11.30
65569;BMP180;52211;50.154;8.682;2023-02-22T03:15:13;99888.00;;;11.20
65569;BMP180;52211;50.154;8.682;2023-02-22T03:24:16;99886.00;;;11.10
65569;BMP180;52211;50.154;8.682;2023-02-22T03:27:02;99886.00;;;11.10
65569;BMP180;52211;50.154;8.682;2023-02-22T03:29:44;99884.00;;;11.20
65569;BMP180;52211;50.154;8.682;2023-02-22T03:32:22;99880.00;;;11.20
65569;BMP180;52211;50.154;8.682;2023-02-22T03:35:05;99883.00;;;11.20
65569;BMP180;52211;50.154;8.682;2023-02-22T03:37:44;99870.00;;;11.20
65569;BMP180;52211;50.154;8.682;2023-02-22T03:40:27;99881.00;;;11.20
65569;BMP180;52211;50.154;8.682;2023-02-22T03:43:06;99877.00;;;11.20
65569;BMP180;52211;50.154;8.682;2023-02-22T03:45:42;99878.00;;;11.30
65569;BMP180;52211;50.154;8.682;2023-02-22T03:48:48;99872.00;;;11.20
65569;BMP180;52211;50.154;8.682;2023-02-22T03:51:20;99871.00;;;11.20
65569;BMP180;52211;50.154;8.682;2023-02-22T03:53:52;99876.00;;;11.20
65569;BMP180;52211;50.154;8.682;2023-02-22T03:56:32;99864.00;;;11.20
65569;BMP180;52211;50.154;8.682;2023-02-22T03:59:09;99865.00;;;11.10
65569;BMP180;52211;50.154;8.682;2023-02-22T04:01:40;99859.00;;;11.20
65569;BMP180;52211;50.154;8.682;2023-02-22T04:04:12;99864.00;;;11.20
65569;BMP180;52211;50.154;8.682;2023-02-22T04:06:42;99855.00;;;11.10
65569;BMP180;52211;50.154;8.682;2023-02-22T04:09:16;99864.00;;;11.20
65569;BMP180;52211;50.154;8.682;2023-02-22T04:11:44;99861.00;;;11.20
65569;BMP180;52211;50.154;8.682;2023-02-22T04:14:12;99864.00;;;11.10
65569;BMP180;52211;50.154;8.682;2023-02-22T04:16:39;99864.00;;;11.10
65569;BMP180;52211;50.154;8.682;2023-02-22T04:19:11;99859.00;;;11.10
65569;BMP180;52211;50.154;8.682;2023-02-22T04:21:42;99865.00;;;11.10
65569;BMP180;52211;50.154;8.682;2023-02-22T04:24:21;99859.00;;;11.10
65569;BMP180;52211;50.154;8.682;2023-02-22T04:26:48;99869.00;;;11.10
65569;BMP180;52211;50.154;8.682;2023-02-22T04:29:18;99862.00;;;11.10
65569;BMP180;52211;50.154;8.682;2023-02-22T04:31:48;99861.00;;;11.10
65569;BMP180;52211;50.154;8.682;2023-02-22T04:34:18;99865.00;;;11.00
65569;BMP180;52211;50.154;8.682;2023-02-22T04:36:47;99868.00;;;11.00
65569;BMP180;52211;50.154;8.682;2023-02-22T04:39:15;99859.00;;;11.00
65569;BMP180;52211;50.154;8.682;2023-02-22T04:41:43;99857.00;;;11.00
65569;BMP180;52211;50.154;8.682;2023-02-22T04:44:12;99863.00;;;11.00
65569;BMP180;52211;50.154;8.682;2023-02-22T04:46:39;99859.00;;;11.00
65569;BMP180;52211;50.154;8.682;2023-02-22T04:49:07;99853.00;;;11.00
65569;BMP180;52211;50.154;8.682;2023-02-22T04:51:37;99858.00;;;11.00
65569;BMP180;52211;50.154;8.682;2023-02-22T04:54:09;99853.00;;;10.90
65569;BMP180;52211;50.154;8.682;2023-02-22T04:56:40;99861.00;;;10.90
65569;BMP180;52211;50.154;8.682;2023-02-22T04:59:09;99854.00;;;10.90
65569;BMP180;52211;50.154;8.682;2023-02-22T05:01:38;99852.00;;;10.90
65569;BMP180;52211;50.154;8.682;2023-02-22T05:04:06;99845.00;;;10.80
65569;BMP180;52211;50.154;8.682;2023-02-22T05:06:33;99846.00;;;10.80
65569;BMP180;52211;50.154;8.682;2023-02-22T05:09:05;99843.00;;;10.80
65569;BMP180;52211;50.154;8.682;2023-02-22T05:11:31;99841.00;;;10.70
65569;BMP180;52211;50.154;8.682;2023-02-22T05:13:58;99845.00;;;10.70
65569;BMP180;52211;50.154;8.682;2023-02-22T05:16:28;99840.00;;;10.70
65569;BMP180;52211;50.154;8.682;2023-02-22T05:18:57;99850.00;;;10.60
65569;BMP180;52211;50.154;8.682;2023-02-22T05:21:26;99840.00;;;10.60
65569;BMP180;52211;50.154;8.682;2023-02-22T05:23:53;99845.00;;;10.60
65569;BMP180;52211;50.154;8.682;2023-02-22T05:26:24;99842.00;;;10.50
65569;BMP180;52211;50.154;8.682;2023-02-22T05:28:54;99839.00;;;10.50
65569;BMP180;52211;50.154;8.682;2023-02-22T05:31:21;99840.00;;;10.50
65569;BMP180;52211;50.154;8.682;2023-02-22T05:33:50;99838.00;;;10.50
65569;BMP180;52211;50.154;8.682;2023-02-22T05:36:19;99836.00;;;10.50
65569;BMP180;52211;50.154;8.682;2023-02-22T05:38:48;99843.00;;;10.50
65569;BMP180;52211;50.154;8.682;2023-02-22T05:41:15;99845.00;;;10.50
65569;BMP180;52211;50.154;8.682;2023-02-22T05:43:44;99829.00;;;10.40
65569;BMP180;52211;50.154;8.682;2023-02-22T05:46:15;99833.00;;;10.40
65569;BMP180;52211;50.154;8.682;2023-02-22T05:48:42;99828.00;;;10.40
65569;BMP180;52211;50.154;8.682;2023-02-22T05:51:09;99826.00;;;10.40
65569;BMP180;52211;50.154;8.682;2023-02-22T05:53:40;99824.00;;;10.50
65569;BMP180;52211;50.154;8.682;2023-02-22T05:56:10;99824.00;;;10.50
65569;BMP180;52211;50.154;8.682;2023-02-22T05:58:41;99831.00;;;10.50
65569;BMP180;52211;50.154;8.682;2023-02-22T06:01:13;99824.00;;;10.50
65569;BMP180;52211;50.154;8.682;2023-02-22T06:03:40;99829.00;;;10.50
65569;BMP180;52211;50.154;8.682;2023-02-22T06:06:07;99831.00;;;10.50
65569;BMP180;52211;50.154;8.682;2023-02-22T06:08:33;99830.00;;;10.50
65569;BMP180;52211;50.154;8.682;2023-02-22T06:11:00;99844.00;;;10.50
65569;BMP180;52211;50.154;8.682;2023-02-22T06:13:29;99847.00;;;10.50
65569;BMP180;52211;50.154;8.682;2023-02-22T06:15:56;99844.00;;;10.50
65569;BMP180;52211;50.154;8.682;2023-02-22T06:18:28;99833.00;;;10.40
65569;BMP180;52211;50.154;8.682;2023-02-22T06:21:01;99835.00;;;10.40
65569;BMP180;52211;50.154;8.682;2023-02-22T06:23:30;99833.00;;;10.40
65569;BMP180;52211;50.154;8.682;2023-02-22T06:25:57;99837.00;;;10.30
65569;BMP180;52211;50.154;8.682;2023-02-22T06:28:24;99834.00;;;10.30
65569;BMP180;52211;50.154;8.682;2023-02-22T06:30:51;99831.00;;;10.20
65569;BMP180;52211;50.154;8.682;2023-02-22T06:33:20;99836.00;;;10.20
65569;BMP180;52211;50.154;8.682;2023-02-22T06:35:49;99833.00;;;10.20
65569;BMP180;52211;50.154;8.682;2023-02-22T06:38:24;99852.00;;;10.20
65569;BMP180;52211;50.154;8.682;2023-02-22T06:40:54;99847.00;;;10.10
65569;BMP180;52211;50.154;8.682;2023-02-22T06:43:22;99846.00;;;10.10
65569;BMP180;52211;50.154;8.682;2023-02-22T06:45:54;99851.00;;;10.20
65569;BMP180;52211;50.154;8.682;2023-02-22T06:48:23;99851.00;;;10.20
65569;BMP180;52211;50.154;8.682;2023-02-22T06:50:52;99855.00;;;10.20
65569;BMP180;52211;50.154;8.682;2023-02-22T06:53:24;99851.00;;;10.20
65569;BMP180;52211;50.154;8.682;2023-02-22T06:55:54;99851.00;;;10.20
65569;BMP180;52211;50.154;8.682;2023-02-22T06:58:26;99850.00;;;10.20
65569;BMP180;52211;50.154;8.682;2023-02-22T07:00:55;99860.00;;;10.20
65569;BMP180;52211;50.154;8.682;2023-02-22T07:03:27;99854.00;;;10.10
65569;BMP180;52211;50.154;8.682;2023-02-22T07:05:56;99859.00;;;10.10
65569;BMP180;52211;50.154;8.682;2023-02-22T07:08:25;99863.00;;;10.10
65569;BMP180;52211;50.154;8.682;2023-02-22T07:10:52;99864.00;;;10.20
65569;BMP180;52211;50.154;8.682;2023-02-22T07:13:21;99861.00;;;10.20
65569;BMP180;52211;50.154;8.682;2023-02-22T07:15:48;99859.00;;;10.20
65569;BMP180;52211;50.154;8.682;2023-02-22T07:18:15;99859.00;;;10.20
65569;BMP180;52211;50.154;8.682;2023-02-22T07:20:47;99864.00;;;10.20
65569;BMP180;52211;50.154;8.682;2023-02-22T07:23:15;99870.00;;;10.20
65569;BMP180;52211;50.154;8.682;2023-02-22T07:25:45;99869.00;;;10.20
65569;BMP180;52211;50.154;8.682;2023-02-22T07:28:17;99878.00;;;10.10
65569;BMP180;52211;50.154;8.682;2023-02-22T07:30:46;99869.00;;;10.10
65569;BMP180;52211;50.154;8.682;2023-02-22T07:33:15;99871.00;;;10.10
65569;BMP180;52211;50.154;8.682;2023-02-22T07:35:49;99872.00;;;10.10
65569;BMP180;52211;50.154;8.682;2023-02-22T07:38:19;99884.00;;;10.10
65569;BMP180;52211;50.154;8.682;2023-02-22T07:40:49;99884.00;;;10.20
65569;BMP180;52211;50.154;8.682;2023-02-22T07:43:19;99887.00;;;10.10
65569;BMP180;52211;50.154;8.682;2023-02-22T07:45:48;99887.00;;;10.20
65569;BMP180;52211;50.154;8.682;2023-02-22T07:48:20;99886.00;;;10.20
65569;BMP180;52211;50.154;8.682;2023-02-22T07:50:48;99877.00;;;10.20
65569;BMP180;52211;50.154;8.682;2023-02-22T07:53:26;99883.00;;;10.20
65569;BMP180;52211;50.154;8.682;2023-02-22T07:55:57;99888.00;;;10.30
65569;BMP180;52211;50.154;8.682;2023-02-22T07:58:29;99883.00;;;10.30
65569;BMP180;52211;50.154;8.682;2023-02-22T08:00:59;99882.00;;;10.40
65569;BMP180;52211;50.154;8.682;2023-02-22T08:03:34;99883.00;;;10.40
65569;BMP180;52211;50.154;8.682;2023-02-22T08:06:08;99886.00;;;10.50
65569;BMP180;52211;50.154;8.682;2023-02-22T08:08:42;99879.00;;;10.50
65569;BMP180;52211;50.154;8.682;2023-02-22T08:11:09;99890.00;;;10.60
65569;BMP180;52211;50.154;8.682;2023-02-22T08:13:37;99885.00;;;10.60
65569;BMP180;52211;50.154;8.682;2023-02-22T08:16:09;99881.00;;;10.70
65569;BMP180;52211;50.154;8.682;2023-02-22T08:18:36;99886.00;;;10.70
65569;BMP180;52211;50.154;8.682;2023-02-22T08:21:09;99891.00;;;10.80
65569;BMP180;52211;50.154;8.682;2023-02-22T08:23:38;99891.00;;;10.90
65569;BMP180;52211;50.154;8.682;2023-02-22T08:26:09;99894.00;;;11.00
65569;BMP180;52211;50.154;8.682;2023-02-22T08:28:43;99887.00;;;11.10
65569;BMP180;52211;50.154;8.682;2023-02-22T08:31:12;99887.00;;;11.10
65569;BMP180;52211;50.154;8.682;2023-02-22T08:33:48;99885.00;;;11.20
65569;BMP180;52211;50.154;8.682;2023-02-22T08:36:18;99876.00;;;11.30
65569;BMP180;52211;50.154;8.682;2023-02-22T08:38:44;99885.00;;;11.30
65569;BMP180;52211;50.154;8.682;2023-02-22T08:41:13;99874.00;;;11.40
65569;BMP180;52211;50.154;8.682;2023-02-22T08:43:43;99884.00;;;11.40
65569;BMP180;52211;50.154;8.682;2023-02-22T08:46:12;99884.00;;;11.60
65569;BMP180;52211;50.154;8.682;2023-02-22T08:48:53;99871.00;;;11.60
65569;BMP180;52211;50.154;8.682;2023-02-22T08:51:25;99874.00;;;11.70
65569;BMP180;52211;50.154;8.682;2023-02-22T08:53:54;99879.00;;;11.70
65569;BMP180;52211;50.154;8.682;2023-02-22T08:56:21;99877.00;;;11.80
65569;BMP180;52211;50.154;8.682;2023-02-22T08:58:48;99878.00;;;11.80
65569;BMP180;52211;50.154;8.682;2023-02-22T09:01:20;99876.00;;;11.90
65569;BMP180;52211;50.154;8.682;2023-02-22T09:03:59;99871.00;;;11.90
65569;BMP180;52211;50.154;8.682;2023-02-22T09:06:30;99871.00;;;12.00
65569;BMP180;52211;50.154;8.682;2023-02-22T09:09:01;99870.00;;;12.10
65569;BMP180;52211;50.154;8.682;2023-02-22T09:11:32;99874.00;;;12.10
65569;BMP180;52211;50.154;8.682;2023-02-22T09:14:01;99874.00;;;12.20
65569;BMP180;52211;50.154;8.682;2023-02-22T09:16:31;99870.00;;;12.30
65569;BMP180;52211;50.154;8.682;2023-02-22T09:19:01;99869.00;;;12.30
65569;BMP180;52211;50.154;8.682;2023-02-22T09:21:28;99862.00;;;12.40
65569;BMP180;52211;50.154;8.682;2023-02-22T09:23:55;99855.00;;;12.50
65569;BMP180;52211;50.154;8.682;2023-02-22T09:26:24;99857.00;;;12.50
65569;BMP180;52211;50.154;8.682;2023-02-22T09:28:55;99858.00;;;12.60
65569;BMP180;52211;50.154;8.682;2023-02-22T09:31:24;99853.00;;;12.70
65569;BMP180;52211;50.154;8.682;2023-02-22T09:33:56;99855.00;;;12.80
65569;BMP180;52211;50.154;8.682;2023-02-22T09:36:25;99850.00;;;12.80
65569;BMP180;52211;50.154;8.682;2023-02-22T09:38:52;99848.00;;;12.90
65569;BMP180;52211;50.154;8.682;2023-02-22T09:47:13;99840.00;;;13.10
65569;BMP180;52211;50.154;8.682;2023-02-22T09:49:59;99846.00;;;13.20
65569;BMP180;52211;50.154;8.682;2023-02-22T09:52:39;99843.00;;;13.30
65569;BMP180;52211;50.154;8.682;2023-02-22T09:55:25;99839.00;;;13.30
65569;BMP180;52211;50.154;8.682;2023-02-22T09:58:02;99840.00;;;13.40
65569;BMP180;52211;50.154;8.682;2023-02-22T10:00:39;99837.00;;;13.40
65569;BMP180;52211;50.154;8.682;2023-02-22T10:03:23;99835.00;;;13.40
65569;BMP180;52211;50.154;8.682;2023-02-22T10:06:02;99839.00;;;13.40
65569;BMP180;52211;50.154;8.682;2023-02-22T10:08:35;99840.00;;;13.50
65569;BMP180;52211;50.154;8.682;2023-02-22T10:20:10;99840.00;;;13.90
65569;BMP180;52211;50.154;8.682;2023-02-22T10:25:45;99841.00;;;14.20
65569;BMP180;52211;50.154;8.682;2023-02-22T10:28:29;99842.00;;;14.40
65569;BMP180;52211;50.154;8.682;2023-02-22T10:31:19;99840.00;;;14.50
65569;BMP180;52211;50.154;8.682;2023-02-22T10:33:59;99839.00;;;14.60
65569;BMP180;52211;50.154;8.682;2023-02-22T10:36:28;99841.00;;;14.70
65569;BMP180;52211;50.154;8.682;2023-02-22T10:39:06;99842.00;;;14.80
65569;BMP180;52211;50.154;8.682;2023-02-22T10:41:47;99837.00;;;14.90
65569;BMP180;52211;50.154;8.682;2023-02-22T10:44:14;99837.00;;;15.10
65569;BMP180;52211;50.154;8.682;2023-02-22T10:46:45;99834.00;;;15.20
65569;BMP180;52211;50.154;8.682;2023-02-22T10:49:23;99834.00;;;15.40
65569;BMP180;52211;50.154;8.682;2023-02-22T10:52:01;99837.00;;;15.60
65569;BMP180;52211;50.154;8.682;2023-02-22T10:54:38;99835.00;;;15.80
65569;BMP180;52211;50.154;8.682;2023-02-22T10:57:08;99835.00;;;16.00
65569;BMP180;52211;50.154;8.682;2023-02-22T10:59:40;99831.00;;;16.10
65569;BMP180;52211;50.154;8.682;2023-02-22T11:04:54;99825.00;;;16.50
65569;BMP180;52211;50.154;8.682;2023-02-22T11:12:34;99813.00;;;17.60
65569;BMP180;52211;50.154;8.682;2023-02-22T11:17:53;99805.00;;;18.30
65569;BMP180;52211;50.154;8.682;2023-02-22T11:20:30;99806.00;;;18.60
65569;BMP180;52211;50.154;8.682;2023-02-22T11:23:03;99804.00;;;18.80
65569;BMP180;52211;50.154;8.682;2023-02-22T11:25:41;99798.00;;;19.10
65569;BMP180;52211;50.154;8.682;2023-02-22T11:28:25;99791.00;;;19.30
65569;BMP180;52211;50.154;8.682;2023-02-22T11:31:09;99791.00;;;19.60
65569;BMP180;52211;50.154;8.682;2023-02-22T11:33:46;99789.00;;;19.70
65569;BMP180;52211;50.154;8.682;2023-02-22T11:36:38;99780.00;;;19.90
65569;BMP180;52211;50.154;8.682;2023-02-22T11:41:50;99774.00;;;20.20
65569;BMP180;52211;50.154;8.682;2023-02-22T11:46:54;99781.00;;;20.40
65569;BMP180;52211;50.154;8.682;2023-02-22T11:49:34;99764.00;;;20.40
65569;BMP180;52211;50.154;8.682;2023-02-22T11:55:11;99754.00;;;20.50
65569;BMP180;52211;50.154;8.682;2023-02-22T12:05:00;99741.00;;;20.70
65569;BMP180;52211;50.154;8.682;2023-02-22T12:08:03;99751.00;;;20.70
65569;BMP180;52211;50.154;8.682;2023-02-22T12:16:31;99750.00;;;20.80
65569;BMP180;52211;50.154;8.682;2023-02-22T12:21:56;99739.00;;;20.90
65569;BMP180;52211;50.154;8.682;2023-02-22T12:24:37;99745.00;;;21.00
65569;BMP180;52211;50.154;8.682;2023-02-22T12:27:14;99744.00;;;21.00
65569;BMP180;52211;50.154;8.682;2023-02-22T12:29:55;99750.00;;;21.10
65569;BMP180;52211;50.154;8.682;2023-02-22T12:32:42;99747.00;;;21.10
65569;BMP180;52211;50.154;8.682;2023-02-22T12:35:37;99735.00;;;21.10
65569;BMP180;52211;50.154;8.682;2023-02-22T12:38:45;99737.00;;;21.00
65569;BMP180;52211;50.154;8.682;2023-02-22T12:41:45;99742.00;;;21.00
65569;BMP180;52211;50.154;8.682;2023-02-22T12:44:27;99732.00;;;21.00
65569;BMP180;52211;50.154;8.682;2023-02-22T12:46:57;99732.00;;;21.00
65569;BMP180;52211;50.154;8.682;2023-02-22T12:49:37;99731.00;;;20.90
65569;BMP180;52211;50.154;8.682;2023-02-22T12:52:18;99732.00;;;20.90
65569;BMP180;52211;50.154;8.682;2023-02-22T12:55:00;99729.00;;;20.80
65569;BMP180;52211;50.154;8.682;2023-02-22T13:06:00;99716.00;;;20.80
65569;BMP180;52211;50.154;8.682;2023-02-22T13:12:13;99713.00;;;21.10
65569;BMP180;52211;50.154;8.682;2023-02-22T13:15:13;99713.00;;;21.40
65569;BMP180;52211;50.154;8.682;2023-02-22T13:28:40;99695.00;;;22.80
65569;BMP180;52211;50.154;8.682;2023-02-22T13:31:33;99694.00;;;23.10
65569;BMP180;52211;50.154;8.682;2023-02-22T13:34:28;99687.00;;;23.20
65569;BMP180;52211;50.154;8.682;2023-02-22T13:52:19;99674.00;;;24.30
65569;BMP180;52211;50.154;8.682;2023-02-22T13:55:00;99671.00;;;24.40
65569;BMP180;52211;50.154;8.682;2023-02-22T13:57:37;99667.00;;;24.50
65569;BMP180;52211;50.154;8.682;2023-02-22T14:13:16;99664.00;;;24.90
65569;BMP180;52211;50.154;8.682;2023-02-22T14:22:02;99659.00;;;24.50
65569;BMP180;52211;50.154;8.682;2023-02-22T14:24:48;99658.00;;;24.30
65569;BMP180;52211;50.154;8.682;2023-02-22T14:27:21;99661.00;;;24.10
65569;BMP180;52211;50.154;8.682;2023-02-22T14:29:58;99661.00;;;23.90
65569;BMP180;52211;50.154;8.682;2023-02-22T14:32:34;99647.00;;;23.60
65569;BMP180;52211;50.154;8.682;2023-02-22T14:35:12;99649.00;;;23.50
65569;BMP180;52211;50.154;8.682;2023-02-22T14:37:59;99648.00;;;23.40
65569;BMP180;52211;50.154;8.682;2023-02-22T14:40:35;99646.00;;;23.30
65569;BMP180;52211;50.154;8.682;2023-02-22T14:43:12;99647.00;;;23.10
65569;BMP180;52211;50.154;8.682;2023-02-22T14:45:52;99639.00;;;22.80
65569;BMP180;52211;50.154;8.682;2023-02-22T14:48:34;99646.00;;;22.60
65569;BMP180;52211;50.154;8.682;2023-02-22T14:51:20;99640.00;;;22.40
65569;BMP180;52211;50.154;8.682;2023-02-22T14:54:29;99639.00;;;22.10
65569;BMP180;52211;50.154;8.682;2023-02-22T15:00:06;99645.00;;;21.60
65569;BMP180;52211;50.154;8.682;2023-02-22T15:02:54;99642.00;;;21.40
65569;BMP180;52211;50.154;8.682;2023-02-22T15:05:32;99639.00;;;21.20
65569;BMP180;52211;50.154;8.682;2023-02-22T15:08:07;99636.00;;;21.00
65569;BMP180;52211;50.154;8.682;2023-02-22T15:10:43;99648.00;;;20.90
65569;BMP180;52211;50.154;8.682;2023-02-22T15:13:23;99642.00;;;20.70
65569;BMP180;52211;50.154;8.682;2023-02-22T15:16:02;99645.00;;;20.50
65569;BMP180;52211;50.154;8.682;2023-02-22T15:18:38;99639.00;;;20.40
65569;BMP180;52211;50.154;8.682;2023-02-22T15:21:16;99634.00;;;20.30
65569;BMP180;52211;50.154;8.682;2023-02-22T15:26:30;99640.00;;;20.00
65569;BMP180;52211;50.154;8.682;2023-02-22T15:29:23;99643.00;;;19.90
65569;BMP180;52211;50.154;8.682;2023-02-22T15:31:53;99639.00;;;19.90
65569;BMP180;52211;50.154;8.682;2023-02-22T15:34:30;99640.00;;;19.80
65569;BMP180;52211;50.154;8.682;2023-02-22T15:37:22;99646.00;;;19.70
65569;BMP180;52211;50.154;8.682;2023-02-22T15:39:53;99643.00;;;19.70
65569;BMP180;52211;50.154;8.682;2023-02-22T15:42:30;99643.00;;;19.60
65569;BMP180;52211;50.154;8.682;2023-02-22T15:44:57;99647.00;;;19.60
65569;BMP180;52211;50.154;8.682;2023-02-22T15:47:31;99646.00;;;19.50
65569;BMP180;52211;50.154;8.682;2023-02-22T15:52:58;99643.00;;;19.50
65569;BMP180;52211;50.154;8.682;2023-02-22T15:55:35;99644.00;;;19.40
65569;BMP180;52211;50.154;8.682;2023-02-22T16:00:45;99644.00;;;19.30
65569;BMP180;52211;50.154;8.682;2023-02-22T16:03:20;99653.00;;;19.20
65569;BMP180;52211;50.154;8.682;2023-02-22T16:05:57;99653.00;;;19.10
65569;BMP180;52211;50.154;8.682;2023-02-22T16:08:34;99647.00;;;19.00
65569;BMP180;52211;50.154;8.682;2023-02-22T16:11:33;99649.00;;;19.00
65569;BMP180;52211;50.154;8.682;2023-02-22T16:14:05;99649.00;;;18.90
65569;BMP180;52211;50.154;8.682;2023-02-22T16:16:37;99647.00;;;18.80
65569;BMP180;52211;50.154;8.682;2023-02-22T16:19:27;99656.00;;;18.80
65569;BMP180;52211;50.154;8.682;2023-02-22T16:22:01;99649.00;;;18.70
65569;BMP180;52211;50.154;8.682;2023-02-22T16:24:35;99653.00;;;18.70
65569;BMP180;52211;50.154;8.682;2023-02-22T16:27:19;99649.00;;;18.60
65569;BMP180;52211;50.154;8.682;2023-02-22T16:30:05;99652.00;;;18.50
65569;BMP180;52211;50.154;8.682;2023-02-22T16:32:55;99646.00;;;18.50
65569;BMP180;52211;50.154;8.682;2023-02-22T16:35:27;99647.00;;;18.40
65569;BMP180;52211;50.154;8.682;2023-02-22T16:38:07;99647.00;;;18.30
65569;BMP180;52211;50.154;8.682;2023-02-22T16:40:54;99650.00;;;18.30
65569;BMP180;52211;50.154;8.682;2023-02-22T16:43:28;99644.00;;;18.20
65569;BMP180;52211;50.154;8.682;2023-02-22T16:46:01;99650.00;;;18.20
65569;BMP180;52211;50.154;8.682;2023-02-22T16:48:32;99645.00;;;18.10
65569;BMP180;52211;50.154;8.682;2023-02-22T16:51:22;99649.00;;;18.10
65569;BMP180;52211;50.154;8.682;2023-02-22T16:53:55;99649.00;;;18.10
65569;BMP180;52211;50.154;8.682;2023-02-22T16:56:28;99647.00;;;18.00
65569;BMP180;52211;50.154;8.682;2023-02-22T16:59:10;99651.00;;;18.00
65569;BMP180;52211;50.154;8.682;2023-02-22T17:01:40;99643.00;;;18.00
65569;BMP180;52211;50.154;8.682;2023-02-22T17:04:15;99648.00;;;18.00
65569;BMP180;52211;50.154;8.682;2023-02-22T17:06:43;99647.00;;;18.00
65569;BMP180;52211;50.154;8.682;2023-02-22T17:09:15;99651.00;;;17.90
65569;BMP180;52211;50.154;8.682;2023-02-22T17:11:49;99653.00;;;17.90
65569;BMP180;52211;50.154;8.682;2023-02-22T17:14:26;99651.00;;;17.90
65569;BMP180;52211;50.154;8.682;2023-02-22T17:16:58;99649.00;;;17.80